Capt Amer — 3FCQ3 — position and weather

sailwx.info

Track history (hours):
 
Tides and Currents Weather Stations Pressure Air Temp Water Temp Dewpoint Dewpoint Depression Visibility Wind Speed Wind Dir Waves Ship Positions

Capt Amer

Last reported at 2016-Dec-02 04:33 UTC. Time now 2016-Dec-04 12:21 UTC.
Position N 35°58' W 005°14'.

Length 113 m; draft 5.1 m.

Type: Cargo ship. MMSI: 373175000.

Date/timePositionNaut miles runAvg speedWind from/ knotsBaromVisibWave heightAir tempDewpointWater temp
2016-Dec-02 04:33N 35°58' W 005°14'1010.3
2016-Dec-02 03:33N 35°57' W 005°27'256 7.3
2016-Nov-30 16:24N 38°14' W 009°57'7 7.7
2016-Nov-30 15:33N 38°20' W 009°59'8 7.7
2016-Nov-30 14:33N 38°28' W 010°01'7 7.3
2016-Nov-30 13:33N 38°35' W 010°03'7 6.7
2016-Nov-30 12:33N 38°41' W 010°05'6 6.4
2016-Nov-30 11:33N 38°48' W 010°06'6 6.0
2016-Nov-30 10:33N 38°54' W 010°07'7 6.7
2016-Nov-30 09:33N 39°00' W 010°07'7 7.3
2016-Nov-30 08:33N 39°08' W 010°07'  
2016-Nov-22 20:33N 39°13' W 009°52'10 9.6
2016-Nov-22 19:33N 39°03' W 009°52'19 9.6
2016-Nov-22 17:33N 38°44' W 009°51'10 9.6
2016-Nov-22 16:33N 38°35' W 009°48'10 9.6
2016-Nov-22 15:34N 38°25' W 009°46'10 9.6
2016-Nov-22 14:33N 38°16' W 009°43'10 9.7
2016-Nov-22 13:33N 38°07' W 009°41'29 9.7
2016-Nov-22 10:32N 37°38' W 009°33'  
Track history (hours):
 
Tides and Currents Weather Stations Pressure Air Temp Water Temp Dewpoint Dewpoint Depression Visibility Wind Speed Wind Dir Waves Ship Positions

Capt Amer

Last reported at 2016-Dec-02 04:33 UTC. Time now 2016-Dec-04 12:21 UTC.
Position N 35°58' W 005°14'.

Length 113 m; draft 5.1 m.

Type: Cargo ship. MMSI: 373175000.

Date/timePositionNaut miles runAvg speedWind from/ knotsBaromVisibWave heightAir tempDewpointWater temp
2016-Dec-02 04:33N 35°58' W 005°14'1010.3
2016-Dec-02 03:33N 35°57' W 005°27'256 7.3
2016-Nov-30 16:24N 38°14' W 009°57'7 7.7
2016-Nov-30 15:33N 38°20' W 009°59'8 7.7
2016-Nov-30 14:33N 38°28' W 010°01'7 7.3
2016-Nov-30 13:33N 38°35' W 010°03'7 6.7
2016-Nov-30 12:33N 38°41' W 010°05'6 6.4
2016-Nov-30 11:33N 38°48' W 010°06'6 6.0
2016-Nov-30 10:33N 38°54' W 010°07'7 6.7
2016-Nov-30 09:33N 39°00' W 010°07'7 7.3
2016-Nov-30 08:33N 39°08' W 010°07'  
2016-Nov-22 20:33N 39°13' W 009°52'10 9.6
2016-Nov-22 19:33N 39°03' W 009°52'19 9.6
2016-Nov-22 17:33N 38°44' W 009°51'10 9.6
2016-Nov-22 16:33N 38°35' W 009°48'10 9.6
2016-Nov-22 15:34N 38°25' W 009°46'10 9.6
2016-Nov-22 14:33N 38°16' W 009°43'10 9.7
2016-Nov-22 13:33N 38°07' W 009°41'29 9.7
2016-Nov-22 10:32N 37°38' W 009°33'  

Dump ship's entire track history